METAR Data
IDs: Format: Raw Decoded Include TAF

Data at: 0113 UTC 10 Dec 2022

METAR for:KTZR (Columbus/Bolton Fld, OH, US)
Text:KTZR 100055Z AUTO 03008KT 7SM OVC027 06/05 A3014 RMK AO2 T00560046
Temperature: 5.6°C ( 42°F)
Dewpoint: 4.6°C ( 40°F) [RH = 93%]
Pressure (altimeter):30.14 inches Hg (1020.7 mb)
Winds:from the NNE (30 degrees) at 9 MPH (8 knots; 4.1 m/s)
Visibility: 7 sm ( 11 km)
Ceiling:2700 feet AGL
Clouds: overcast cloud deck at 2700 feet AGL
QC Flag:automated observation with no human augmentation